Rankings de siempre
Mejores tiempos personales válidos de equipo a través de todos los eventos y temporadas. Cada equipo aparece una vez por división.
Busca por nombre y abre la página donde está clasificado este récord de división.
24,226 equipos clasificados
| Pos. | Pos. AG | Equipo | Nacionalidad | Categoría de edad | TiempoMejor tiempo | Diferencia |
|---|---|---|---|---|---|---|
| 19501 | #7780 | Rinchen Wongdhen & Rinchen TseringIND · M 30-34 · AG #7780 | IND | M 30-34 | 1:21:01 | +32:30 |
| 19502 | #1149 | Sebastián Tejas & Alan GuerreroMEX · M 16-24 · AG #1149 | MEX | M 16-24 | 1:21:01 | +32:30 |
| 19503 | #2949 | Guy Melbourne & Mitch AldenGBR · M 35-39 · AG #2949 | GBR | M 35-39 | 1:21:01 | +32:30 |
| 19504 | #3139 | Arthur Champenois & Hugo RichardFRA · M 25-29 · AG #3139 | FRA | M 25-29 | 1:21:02 | +32:31 |
| 19505 | #7781 | Thibault Philippe & Thibault MathorezFRA · M 30-34 · AG #7781 | FRA | M 30-34 | 1:21:02 | +32:31 |
| 19506 | #7782 | Thijs Staubach & Aernout KolijnNED · M 30-34 · AG #7782 | NED | M 30-34 | 1:21:02 | +32:31 |
| 19507 | #7783 | Daniele Speroni & Francesco LeoniITA · M 30-34 · AG #7783 | ITA | M 30-34 | 1:21:02 | +32:31 |
| 19508 | -- | Joseph Rombalski & Stephen OkalaUSA · M MU29 | USA | M MU29 | 1:21:02 | +32:31 |
| 19509 | #7784 | Massimo Nappo & Ciro SedenteITA · M 30-34 · AG #7784 | ITA | M 30-34 | 1:21:02 | +32:31 |
| 19510 | #7785 | Phillipp Uhler & Patrick KahlenbergGER · M 30-34 · AG #7785 | GER | M 30-34 | 1:21:02 | +32:31 |
| 19511 | #3140 | Florian Schwarz & Yanis SantosM 25-29 · AG #3140 | -- | M 25-29 | 1:21:03 | +32:32 |
| 19512 | #2257 | Adam Csaky & Attila LaczkóHUN · M 40-44 · AG #2257 | HUN | M 40-44 | 1:21:03 | +32:32 |
| 19513 | #3141 | Marvin Kehm & Björn BachmannGER · M 25-29 · AG #3141 | GER | M 25-29 | 1:21:03 | +32:32 |
| 19514 | #2950 | Nik Stagno Navarra & Ben KendrickM 35-39 · AG #2950 | -- | M 35-39 | 1:21:03 | +32:32 |
| 19515 | #2258 | Jay Stevens & Charles WarrenUSA · M 40-44 · AG #2258 | USA | M 40-44 | 1:21:03 | +32:32 |
| 19516 | #2951 | Kevin Mccarron & William HelinskiUSA · M 35-39 · AG #2951 | USA | M 35-39 | 1:21:03 | +32:32 |
| 19517 | #7786 | Neo Kominami & 渡辺 洋人JPN · M 30-34 · AG #7786 | JPN | M 30-34 | 1:21:03 | +32:32 |
| 19518 | #7787 | Benjamin Fromont & Evrard JulienBEL · M 30-34 · AG #7787 | BEL | M 30-34 | 1:21:03 | +32:32 |
| 19519 | #2259 | Ronny Spilde & Fredrick Gimmestad SandeNOR · M 40-44 · AG #2259 | NOR | M 40-44 | 1:21:03 | +32:32 |
| 19520 | #2260 | JOCELYN COSTIS & christophe chevalFRA · M 40-44 · AG #2260 | FRA | M 40-44 | 1:21:03 | +32:32 |
| 19521 | #7788 | Bartłomiej Setlak & Sebastian MazekPOL · M 30-34 · AG #7788 | POL | M 30-34 | 1:21:03 | +32:32 |
| 19522 | #2261 | Thomas Sommer & Michael ChristensenDEN · M 40-44 · AG #2261 | DEN | M 40-44 | 1:21:04 | +32:33 |
| 19523 | #2262 | Chris Brown & Peter MurkettGBR · M 40-44 · AG #2262 | GBR | M 40-44 | 1:21:04 | +32:33 |
| 19524 | #7789 | Mehmet Berkay Baygın & Kadir SilahtaroğluTUR · M 30-34 · AG #7789 | TUR | M 30-34 | 1:21:04 | +32:33 |
| 19525 | #1150 | Rohan Van Loggerenberg & Divan MeyerRSA · M 16-24 · AG #1150 | RSA | M 16-24 | 1:21:04 | +32:33 |
Página 781 de 970